Hauptseite
METAR-TAF:

METAR-TAF

Flughäfen :

Larnaka, Zypern

Flughafen Larnaka

Breite: 34-53N, Länge: 033-38E, Höhe: 2 m

Beobachtung

Neuester Wetterbericht von vor 39 Minuten, um 11:30 UTC
Wind 13 kt aus Süd/Südwest, variierte zwischen Süd und West/Südwest
Temperatur 30°C
Luftfeuchtigkeit 35%
Luftdruck 1011 hPa
Sichtweite 10 km oder mehr
Leicht bewölkt in der Höhe von 3000 ft

METAR: LCLK 221130Z 20013KT 180V240 9999 FEW030 30/13 Q1011 NOSIG

Zeit: 15:09 (12:09 UTC)

Prognose

Neuester Wetterbericht von vor 39 Minuten, um 11:30 UTC
Gültige Prognose vom 22 um 12 UTC bis 23 um 12 UTC
Wind 16 kt aus Süd/Südwest
Sichtweite 10 km oder mehr
Leicht bewölkt in der Höhe von 3000 ft
Übergehend zu
vom 22 um 15 UTC bis 22 um 19 UTC
Wind 6 kt aus Nordwest
Übergehend zu
vom 23 um 08 UTC bis 23 um 12 UTC
Wind 14 kt aus Süd/Südwest

TAF: LCLK 221130Z 2212/2312 21016KT 9999 FEW030 BECMG 2215/2219 32006KT BECMG 2308/2312 20014KT

Wetterbeobachtungen und Prognosen von mehr als 4000 Flughäfen (METAR und TAF Bericht).

Die verfügbaren Stationen werden durch gelbe und rote Markierungen auf der Karte dargestellt.

Führen Sie die Maus auf sie, um den Namen der Station zu sehen.

Darauf klicken, um die Beobachtung von Wetterbeobachtungen und Prognosen zu sehen.

Um die Karte zu ändern : klicken Sie auf den grünen Tasten mit einem schwarzen Kreuz Zum Vergrößern, auf den grünen Button mit einem Gedankenstrich zu verkleinern, oder auf die grünen Pfeile für benachbarte Karten.


METAR-TAF: